Time;durP1;ratioP1;P1;durP2;ratioP2;P2;SDS_P1;SDS_P2;PMS_P1;PMS_P2;Temp;Humidity;BMP_temperature;BMP_pressure;BME280_temperature;BME280_humidity;BME280_pressure;Samples;Min_cycle;Max_cycle;Signal;HPM_P1;HPM_P2
2023/04/14 00:00:14;;;;;;;4.30;2.20;;;;;;;;;;5024787;28;20047;-64
2023/04/14 00:02:39;;;;;;;3.97;2.50;;;;;;;;;;5025294;28;20290;-69
2023/04/14 00:05:05;;;;;;;3.50;2.63;;;;;;;;;;5025193;28;20045;-68
2023/04/14 00:07:30;;;;;;;3.35;2.28;;;;;;;;;;5025422;28;20936;-68
2023/04/14 00:09:56;;;;;;;4.37;2.70;;;;;;;;;;5023828;28;20172;-64
2023/04/14 00:12:21;;;;;;;3.10;2.23;;;;;;;;;;5015964;28;20050;-69
2023/04/14 00:14:46;;;;;;;2.73;2.20;;;;;;;;;;5024169;28;20115;-68
2023/04/14 00:17:11;;;;;;;3.58;2.10;;;;;;;;;;5023336;28;20284;-68
2023/04/14 00:19:36;;;;;;;3.40;2.20;;;;;;;;;;5025893;28;20099;-68
2023/04/14 00:22:02;;;;;;;3.37;2.17;;;;;;;;;;5038208;28;20025;-69
2023/04/14 00:24:27;;;;;;;3.40;2.43;;;;;;;;;;5024532;28;20310;-69
2023/04/14 00:26:52;;;;;;;3.00;2.23;;;;;;;;;;5024975;28;20116;-65
2023/04/14 00:29:17;;;;;;;2.60;2.00;;;;;;;;;;5025003;28;20268;-68
2023/04/14 00:31:43;;;;;;;2.87;2.30;;;;;;;;;;5023242;28;20132;-68
2023/04/14 00:34:08;;;;;;;3.73;2.30;;;;;;;;;;5010160;28;20068;-68
2023/04/14 00:36:33;;;;;;;3.00;2.20;;;;;;;;;;5024919;28;20284;-64
2023/04/14 00:38:59;;;;;;;3.50;2.25;;;;;;;;;;5023922;28;20976;-70
2023/04/14 00:41:24;;;;;;;2.90;1.92;;;;;;;;;;5025046;28;20036;-66
2023/04/14 00:43:53;;;;;;;3.75;2.30;;;;;;;;;;5012087;28;20040;-68
2023/04/14 00:46:18;;;;;;;2.97;2.10;;;;;;;;;;5023758;28;20532;-68
2023/04/14 00:48:44;;;;;;;2.60;2.00;;;;;;;;;;5025228;28;20034;-69
2023/04/14 00:51:09;;;;;;;3.03;2.00;;;;;;;;;;5023139;28;20092;-70
2023/04/14 00:53:34;;;;;;;3.33;2.20;;;;;;;;;;5024912;28;20500;-65
2023/04/14 00:56:00;;;;;;;3.43;2.23;;;;;;;;;;5022884;28;20315;-65
2023/04/14 00:58:25;;;;;;;3.83;2.25;;;;;;;;;;5024988;28;20363;-63
2023/04/14 01:00:54;;;;;;;3.30;2.20;;;;;;;;;;5024584;28;20417;-67
2023/04/14 01:03:19;;;;;;;2.60;2.00;;;;;;;;;;5023076;28;20661;-64
2023/04/14 01:05:45;;;;;;;3.00;2.15;;;;;;;;;;5023620;28;20041;-64
2023/04/14 01:08:11;;;;;;;3.40;2.27;;;;;;;;;;5025421;28;20029;-68
2023/04/14 01:10:40;;;;;;;3.17;1.98;;;;;;;;;;5023206;28;20029;-66
2023/04/14 01:13:17;;;;;;;4.23;2.53;;;;;;;;;;5016689;28;20041;-67
2023/04/14 01:15:42;;;;;;;3.20;2.10;;;;;;;;;;5023979;28;20072;-70
2023/04/14 01:18:11;;;;;;;3.07;2.30;;;;;;;;;;5024246;28;20029;-68
2023/04/14 01:20:38;;;;;;;3.65;2.28;;;;;;;;;;5024126;28;20128;-67
2023/04/14 01:23:04;;;;;;;3.63;2.40;;;;;;;;;;5022652;28;20124;-68
2023/04/14 01:25:48;;;;;;;3.30;2.13;;;;;;;;;;5024121;28;20045;-65
2023/04/14 01:28:13;;;;;;;3.30;2.13;;;;;;;;;;5024962;28;20087;-62
2023/04/14 01:30:42;;;;;;;3.30;2.10;;;;;;;;;;5024265;28;20529;-68
2023/04/14 01:33:08;;;;;;;3.22;2.30;;;;;;;;;;5025432;28;20410;-69
2023/04/14 01:35:37;;;;;;;3.67;2.25;;;;;;;;;;5023957;28;20449;-70
2023/04/14 01:38:03;;;;;;;2.97;2.42;;;;;;;;;;5022764;28;20038;-69
2023/04/14 01:40:29;;;;;;;3.45;2.38;;;;;;;;;;5022457;28;20025;-69
2023/04/14 01:42:59;;;;;;;2.65;1.95;;;;;;;;;;5024585;28;20049;-66
2023/04/14 01:45:25;;;;;;;2.90;1.90;;;;;;;;;;5021659;28;20049;-68
2023/04/14 01:47:51;;;;;;;3.55;2.25;;;;;;;;;;5023936;28;20033;-67
2023/04/14 01:50:16;;;;;;;3.15;2.20;;;;;;;;;;5023806;28;20052;-61
2023/04/14 01:52:41;;;;;;;3.00;1.92;;;;;;;;;;5033666;28;20119;-67
2023/04/14 01:55:08;;;;;;;3.50;2.08;;;;;;;;;;5023594;28;20097;-69
2023/04/14 01:57:34;;;;;;;3.70;2.05;;;;;;;;;;5022746;28;20040;-67
2023/04/14 01:59:59;;;;;;;3.28;2.10;;;;;;;;;;5024128;28;20041;-69
2023/04/14 02:02:24;;;;;;;3.47;2.00;;;;;;;;;;5022668;28;20269;-64
2023/04/14 02:04:51;;;;;;;2.72;2.10;;;;;;;;;;5021560;28;20052;-67
2023/04/14 02:07:16;;;;;;;2.53;1.80;;;;;;;;;;5023604;28;20042;-67
2023/04/14 02:09:41;;;;;;;2.65;1.95;;;;;;;;;;5038677;28;20042;-67
2023/04/14 02:12:07;;;;;;;2.63;2.10;;;;;;;;;;5024092;28;20167;-68
2023/04/14 02:14:32;;;;;;;2.95;1.95;;;;;;;;;;5038939;28;20044;-69
2023/04/14 02:16:57;;;;;;;3.35;2.10;;;;;;;;;;5009516;28;20050;-62
2023/04/14 02:19:23;;;;;;;3.22;1.98;;;;;;;;;;5038384;28;20029;-68
2023/04/14 02:21:48;;;;;;;3.07;2.23;;;;;;;;;;5039746;28;20045;-69
2023/04/14 02:24:13;;;;;;;2.95;1.83;;;;;;;;;;5025868;28;20654;-65
2023/04/14 02:26:39;;;;;;;2.70;2.10;;;;;;;;;;5027391;28;20036;-66
2023/04/14 02:29:11;;;;;;;3.05;2.15;;;;;;;;;;5025977;28;20489;-63
2023/04/14 02:31:41;;;;;;;2.85;1.90;;;;;;;;;;5028835;28;20437;-62
2023/04/14 02:34:06;;;;;;;;;;;;;;;;;;5047538;28;20017;-64
2023/04/14 02:36:38;;;;;;;3.00;2.03;;;;;;;;;;5047099;28;19940;-68
2023/04/14 02:39:05;;;;;;;2.67;1.95;;;;;;;;;;5029095;28;20347;-66
2023/04/14 02:41:30;;;;;;;2.50;2.00;;;;;;;;;;5030677;28;20836;-61
2023/04/14 02:44:05;;;;;;;2.78;2.00;;;;;;;;;;5032204;28;20120;-68
2023/04/14 02:46:31;;;;;;;2.80;1.73;;;;;;;;;;5044008;28;20060;-69
2023/04/14 02:48:56;;;;;;;2.83;2.10;;;;;;;;;;5045078;28;20430;-68
2023/04/14 02:51:21;;;;;;;2.70;2.00;;;;;;;;;;5046479;28;20025;-67
2023/04/14 02:53:46;;;;;;;3.60;2.10;;;;;;;;;;5047108;28;20296;-68
2023/04/14 02:56:12;;;;;;;2.97;1.90;;;;;;;;;;5028167;28;20292;-68
2023/04/14 02:58:37;;;;;;;2.83;1.93;;;;;;;;;;5046528;28;20362;-70
2023/04/14 03:01:02;;;;;;;2.83;1.93;;;;;;;;;;5045522;28;20790;-70
2023/04/14 03:03:27;;;;;;;3.20;2.23;;;;;;;;;;5046840;28;20540;-68
2023/04/14 03:05:53;;;;;;;2.60;1.85;;;;;;;;;;5045811;28;20283;-67
2023/04/14 03:08:18;;;;;;;2.72;2.13;;;;;;;;;;5044887;28;20033;-65
2023/04/14 03:10:44;;;;;;;2.60;1.80;;;;;;;;;;5046481;28;20018;-68
2023/04/14 03:13:09;;;;;;;2.60;2.00;;;;;;;;;;5046952;28;20791;-67
2023/04/14 03:15:35;;;;;;;3.17;1.80;;;;;;;;;;5046572;28;20122;-67
2023/04/14 03:18:00;;;;;;;3.22;1.90;;;;;;;;;;5046067;28;20473;-62
2023/04/14 03:20:25;;;;;;;2.78;2.08;;;;;;;;;;5045425;28;20045;-69
2023/04/14 03:22:56;;;;;;;3.05;2.00;;;;;;;;;;5034065;28;20032;-64
2023/04/14 03:25:24;;;;;;;4.20;2.13;;;;;;;;;;5045227;28;20044;-68
2023/04/14 03:27:50;;;;;;;3.28;2.30;;;;;;;;;;5046460;28;20123;-64
2023/04/14 03:30:15;;;;;;;2.67;1.95;;;;;;;;;;5045868;28;20537;-69
2023/04/14 03:32:40;;;;;;;2.77;1.87;;;;;;;;;;5045794;28;20737;-63
2023/04/14 03:35:06;;;;;;;3.00;2.05;;;;;;;;;;5046198;28;21010;-67
2023/04/14 03:37:32;;;;;;;2.78;1.80;;;;;;;;;;5026251;28;20497;-69
2023/04/14 03:39:59;;;;;;;2.88;2.03;;;;;;;;;;5044470;28;20076;-69
2023/04/14 03:42:25;;;;;;;2.50;1.80;;;;;;;;;;5046498;28;20025;-66
2023/04/14 03:44:53;;;;;;;3.22;2.10;;;;;;;;;;5045359;28;20033;-68
2023/04/14 03:47:18;;;;;;;2.63;2.20;;;;;;;;;;5044238;28;20041;-73
2023/04/14 03:49:45;;;;;;;3.75;2.00;;;;;;;;;;5046507;28;20398;-64
2023/04/14 03:52:11;;;;;;;2.55;1.80;;;;;;;;;;5028544;28;20355;-68
2023/04/14 03:54:36;;;;;;;2.45;1.92;;;;;;;;;;5045532;28;20115;-69
2023/04/14 03:57:03;;;;;;;2.92;1.88;;;;;;;;;;5045526;28;20052;-69
2023/04/14 03:59:28;;;;;;;2.50;1.95;;;;;;;;;;5044770;28;20112;-69
2023/04/14 04:01:54;;;;;;;2.63;1.70;;;;;;;;;;5043260;28;20282;-68
2023/04/14 04:04:19;;;;;;;3.08;2.03;;;;;;;;;;5043715;28;20509;-67
2023/04/14 04:06:45;;;;;;;2.78;1.90;;;;;;;;;;5043512;28;20037;-65
2023/04/14 04:09:13;;;;;;;2.17;1.77;;;;;;;;;;5045223;28;20172;-66
2023/04/14 04:11:38;;;;;;;2.47;1.92;;;;;;;;;;5045880;28;20028;-69
2023/04/14 04:14:03;;;;;;;2.90;1.93;;;;;;;;;;5044006;28;20926;-65
2023/04/14 04:16:29;;;;;;;2.10;1.70;;;;;;;;;;5044607;28;20660;-70
2023/04/14 04:18:54;;;;;;;3.10;2.13;;;;;;;;;;5044776;28;20037;-68
2023/04/14 04:21:19;;;;;;;2.53;1.70;;;;;;;;;;5045312;28;20102;-68
2023/04/14 04:23:45;;;;;;;2.67;1.80;;;;;;;;;;5043172;28;20029;-66
2023/04/14 04:26:10;;;;;;;2.63;1.80;;;;;;;;;;5043702;28;20358;-68
2023/04/14 04:28:36;;;;;;;2.47;1.83;;;;;;;;;;5044957;28;20466;-68
2023/04/14 04:31:01;;;;;;;2.53;1.90;;;;;;;;;;5045043;28;20481;-69
2023/04/14 04:33:26;;;;;;;2.57;1.63;;;;;;;;;;5043052;28;20280;-63
2023/04/14 04:35:51;;;;;;;3.13;2.13;;;;;;;;;;5043246;28;20315;-66
2023/04/14 04:38:17;;;;;;;2.40;1.80;;;;;;;;;;5042400;28;20099;-66
2023/04/14 04:40:42;;;;;;;2.63;1.70;;;;;;;;;;5027937;28;20502;-68
2023/04/14 04:43:07;;;;;;;3.33;1.90;;;;;;;;;;5034842;28;20692;-67
2023/04/14 04:45:51;;;;;;;3.30;2.00;;;;;;;;;;5019294;28;20315;-63
2023/04/14 04:48:17;;;;;;;2.63;1.75;;;;;;;;;;5008270;28;20156;-67
2023/04/14 04:50:42;;;;;;;4.47;2.27;;;;;;;;;;5013936;28;20132;-67
2023/04/14 04:53:07;;;;;;;3.22;2.10;;;;;;;;;;5008214;28;20297;-67
2023/04/14 04:55:32;;;;;;;5.95;2.20;;;;;;;;;;5007512;28;20061;-68
2023/04/14 04:57:58;;;;;;;3.13;2.03;;;;;;;;;;5002266;28;20100;-65
2023/04/14 05:00:25;;;;;;;2.70;1.90;;;;;;;;;;5007264;28;20284;-69
2023/04/14 05:02:50;;;;;;;3.78;2.10;;;;;;;;;;5008611;28;20124;-66
2023/04/14 05:05:15;;;;;;;3.10;1.98;;;;;;;;;;5008019;28;20129;-66
2023/04/14 05:07:41;;;;;;;3.70;2.17;;;;;;;;;;5007558;28;20046;-64
2023/04/14 05:10:06;;;;;;;4.30;2.05;;;;;;;;;;5009774;28;20696;-65
2023/04/14 05:12:32;;;;;;;4.90;1.90;;;;;;;;;;5001687;28;20753;-67
2023/04/14 05:14:57;;;;;;;3.77;1.80;;;;;;;;;;5013155;28;20044;-67
2023/04/14 05:17:22;;;;;;;5.57;2.08;;;;;;;;;;5008657;28;20311;-65
2023/04/14 05:19:47;;;;;;;11.03;2.23;;;;;;;;;;5009401;28;20046;-66
2023/04/14 05:22:13;;;;;;;11.87;2.10;;;;;;;;;;5008619;28;20872;-67
2023/04/14 05:24:38;;;;;;;2.97;1.83;;;;;;;;;;5009024;28;20729;-65
2023/04/14 05:27:03;;;;;;;6.93;2.30;;;;;;;;;;5013192;28;20025;-65
2023/04/14 05:29:29;;;;;;;3.97;2.07;;;;;;;;;;5011216;28;20336;-63
2023/04/14 05:31:54;;;;;;;5.35;1.80;;;;;;;;;;5008951;28;20296;-66
2023/04/14 05:34:19;;;;;;;3.03;2.10;;;;;;;;;;5007956;28;20033;-65
2023/04/14 05:36:44;;;;;;;4.50;2.03;;;;;;;;;;5007845;28;20305;-66
2023/04/14 05:39:10;;;;;;;3.57;2.40;;;;;;;;;;5008490;28;20080;-68
2023/04/14 05:41:35;;;;;;;3.20;1.90;;;;;;;;;;5008896;28;20284;-64
2023/04/14 05:44:02;;;;;;;4.00;2.00;;;;;;;;;;5008336;28;20033;-63
2023/04/14 05:46:27;;;;;;;3.45;1.73;;;;;;;;;;5006233;28;20310;-64
2023/04/14 05:48:52;;;;;;;3.53;1.88;;;;;;;;;;5008673;28;20046;-65
2023/04/14 05:51:18;;;;;;;3.50;1.97;;;;;;;;;;5008059;28;20529;-67
2023/04/14 05:53:43;;;;;;;4.27;2.47;;;;;;;;;;5006927;28;20322;-70
2023/04/14 05:56:10;;;;;;;3.93;2.20;;;;;;;;;;5009554;28;20881;-69
2023/04/14 05:58:35;;;;;;;3.65;1.90;;;;;;;;;;5012341;28;20626;-66
2023/04/14 06:01:02;;;;;;;3.53;2.15;;;;;;;;;;5012753;28;20060;-67
2023/04/14 06:03:28;;;;;;;3.47;1.90;;;;;;;;;;5011628;28;20091;-64
2023/04/14 06:05:54;;;;;;;5.13;1.90;;;;;;;;;;5012682;28;20490;-67
2023/04/14 06:08:19;;;;;;;2.47;1.70;;;;;;;;;;5012645;28;20029;-65
2023/04/14 06:10:45;;;;;;;3.53;1.98;;;;;;;;;;5011860;28;20108;-61
2023/04/14 06:13:11;;;;;;;3.20;1.80;;;;;;;;;;5015734;28;20124;-65
2023/04/14 06:15:36;;;;;;;3.13;1.80;;;;;;;;;;5013046;28;20119;-68
2023/04/14 06:18:01;;;;;;;2.83;2.20;;;;;;;;;;5015933;28;20038;-68
2023/04/14 06:20:26;;;;;;;3.40;1.80;;;;;;;;;;5013357;28;20792;-69
2023/04/14 06:22:51;;;;;;;3.45;1.77;;;;;;;;;;5012657;28;20758;-63
2023/04/14 06:25:17;;;;;;;3.72;2.58;;;;;;;;;;5010893;28;20052;-65
2023/04/14 06:27:42;;;;;;;5.20;2.10;;;;;;;;;;5012556;28;20056;-70
2023/04/14 06:30:07;;;;;;;3.75;2.30;;;;;;;;;;5011542;28;20293;-70
2023/04/14 06:32:33;;;;;;;2.75;1.83;;;;;;;;;;5010119;28;20064;-68
2023/04/14 06:34:58;;;;;;;2.80;2.08;;;;;;;;;;5009679;28;20034;-66
2023/04/14 06:37:24;;;;;;;3.90;1.98;;;;;;;;;;5010971;28;20600;-70
2023/04/14 06:39:49;;;;;;;4.50;2.10;;;;;;;;;;5005562;28;20203;-69
2023/04/14 06:42:15;;;;;;;5.82;2.17;;;;;;;;;;5012210;28;20030;-65
2023/04/14 06:44:40;;;;;;;3.58;2.03;;;;;;;;;;5011149;28;20036;-64
2023/04/14 06:47:05;;;;;;;2.67;1.70;;;;;;;;;;5010429;28;20359;-66
2023/04/14 06:49:30;;;;;;;4.50;2.00;;;;;;;;;;5012922;28;20292;-65
2023/04/14 06:51:56;;;;;;;3.90;2.08;;;;;;;;;;4999492;28;20049;-63
2023/04/14 06:54:21;;;;;;;3.57;2.10;;;;;;;;;;5010907;28;20050;-70
2023/04/14 06:56:46;;;;;;;3.95;2.28;;;;;;;;;;5010285;28;20388;-70
2023/04/14 06:59:11;;;;;;;4.32;2.03;;;;;;;;;;5009874;28;20091;-65
2023/04/14 07:01:37;;;;;;;5.30;2.20;;;;;;;;;;5012390;28;20091;-68
2023/04/14 07:04:02;;;;;;;3.40;2.10;;;;;;;;;;5012908;28;20042;-65
2023/04/14 07:06:27;;;;;;;5.03;1.90;;;;;;;;;;5010777;28;20539;-67
2023/04/14 07:08:54;;;;;;;3.03;1.90;;;;;;;;;;5010452;28;20827;-62
2023/04/14 07:11:20;;;;;;;3.38;1.90;;;;;;;;;;5012844;28;20299;-63
2023/04/14 07:13:45;;;;;;;2.80;2.00;;;;;;;;;;5012907;28;20107;-66
2023/04/14 07:16:10;;;;;;;4.28;2.15;;;;;;;;;;5012187;28;20124;-67
2023/04/14 07:18:36;;;;;;;4.65;1.88;;;;;;;;;;4998573;28;20045;-63
2023/04/14 07:21:01;;;;;;;4.83;2.07;;;;;;;;;;5010513;28;20490;-64
2023/04/14 07:23:26;;;;;;;5.45;2.15;;;;;;;;;;5011458;28;20283;-63
2023/04/14 07:25:52;;;;;;;5.80;2.10;;;;;;;;;;5013393;28;20209;-61
2023/04/14 07:28:18;;;;;;;3.88;2.08;;;;;;;;;;5008004;28;20042;-62
2023/04/14 07:30:44;;;;;;;4.15;2.38;;;;;;;;;;5008845;28;20544;-64
2023/04/14 07:33:09;;;;;;;3.88;2.22;;;;;;;;;;5018777;28;20044;-65
2023/04/14 07:35:34;;;;;;;4.43;2.20;;;;;;;;;;5014155;28;20493;-63
2023/04/14 07:38:00;;;;;;;7.50;2.43;;;;;;;;;;5015145;28;20280;-61
2023/04/14 07:40:25;;;;;;;7.43;2.35;;;;;;;;;;5012409;28;20269;-61
2023/04/14 07:42:51;;;;;;;9.82;3.08;;;;;;;;;;5007020;28;20041;-64
2023/04/14 07:45:16;;;;;;;7.43;2.33;;;;;;;;;;5021625;28;20135;-62
2023/04/14 07:47:41;;;;;;;4.05;2.35;;;;;;;;;;5024185;28;20037;-62
2023/04/14 07:50:06;;;;;;;8.53;2.33;;;;;;;;;;5016311;28;20080;-63
2023/04/14 07:52:32;;;;;;;6.65;2.72;;;;;;;;;;5019558;28;20545;-62
2023/04/14 07:54:57;;;;;;;3.57;2.03;;;;;;;;;;5031281;28;20042;-62
2023/04/14 07:57:22;;;;;;;6.83;2.57;;;;;;;;;;5018983;28;20333;-64
2023/04/14 07:59:47;;;;;;;7.87;2.80;;;;;;;;;;5006097;28;20273;-62
2023/04/14 08:02:13;;;;;;;5.63;2.30;;;;;;;;;;5009106;28;20691;-61
2023/04/14 08:04:38;;;;;;;5.90;2.73;;;;;;;;;;5008982;28;20362;-62
2023/04/14 08:07:03;;;;;;;6.00;2.30;;;;;;;;;;5014220;28;20296;-64
2023/04/14 08:09:29;;;;;;;4.82;2.10;;;;;;;;;;5010795;28;20166;-61
2023/04/14 08:11:55;;;;;;;6.57;2.20;;;;;;;;;;5010536;28;20044;-62
2023/04/14 08:14:21;;;;;;;7.25;2.33;;;;;;;;;;5008398;28;20481;-63
2023/04/14 08:16:46;;;;;;;6.97;2.35;;;;;;;;;;5010748;28;20053;-61
2023/04/14 08:19:11;;;;;;;5.53;2.40;;;;;;;;;;5008892;28;20128;-61
2023/04/14 08:21:37;;;;;;;4.67;2.30;;;;;;;;;;5008145;28;20136;-63
2023/04/14 08:24:02;;;;;;;7.97;2.50;;;;;;;;;;5014157;28;20124;-63
2023/04/14 08:26:27;;;;;;;5.85;1.88;;;;;;;;;;5010165;28;20037;-63
2023/04/14 08:28:53;;;;;;;6.38;2.08;;;;;;;;;;5002714;28;20147;-60
2023/04/14 08:31:21;;;;;;;5.03;2.15;;;;;;;;;;5009245;28;20136;-62
2023/04/14 08:33:46;;;;;;;5.90;2.20;;;;;;;;;;5009470;28;20053;-64
2023/04/14 08:36:12;;;;;;;7.20;2.33;;;;;;;;;;5012259;28;20053;-61
2023/04/14 08:38:37;;;;;;;7.30;2.20;;;;;;;;;;5010976;28;21199;-62
2023/04/14 08:41:03;;;;;;;7.93;2.10;;;;;;;;;;5022951;28;20351;-62
2023/04/14 08:43:28;;;;;;;6.55;2.00;;;;;;;;;;5024347;28;20030;-63
2023/04/14 08:45:54;;;;;;;5.72;2.30;;;;;;;;;;5024733;28;20056;-62
2023/04/14 08:48:19;;;;;;;7.75;2.00;;;;;;;;;;5025002;28;20576;-62
2023/04/14 08:51:07;;;;;;;8.05;2.38;;;;;;;;;;5024280;28;20506;-66
2023/04/14 08:53:33;;;;;;;7.03;2.08;;;;;;;;;;4999996;28;20037;-64
2023/04/14 08:56:01;;;;;;;7.80;1.83;;;;;;;;;;5023893;28;20038;-61
2023/04/14 08:58:26;;;;;;;7.75;2.10;;;;;;;;;;5003254;28;20394;-63
2023/04/14 09:00:51;;;;;;;7.15;2.25;;;;;;;;;;5006583;28;20021;-62
2023/04/14 09:03:17;;;;;;;8.73;2.03;;;;;;;;;;5023308;28;20021;-63
2023/04/14 09:05:42;;;;;;;11.13;2.50;;;;;;;;;;5024097;28;20022;-65
2023/04/14 09:08:07;;;;;;;12.90;2.47;;;;;;;;;;5039423;28;20574;-64
2023/04/14 09:10:34;;;;;;;9.10;1.97;;;;;;;;;;5024681;28;20367;-63
2023/04/14 09:13:00;;;;;;;9.20;1.92;;;;;;;;;;5023983;28;20267;-64
2023/04/14 09:15:27;;;;;;;10.07;2.35;;;;;;;;;;5039455;28;20053;-62
2023/04/14 09:17:53;;;;;;;10.00;2.30;;;;;;;;;;5024203;28;20481;-64
2023/04/14 09:20:18;;;;;;;8.15;2.20;;;;;;;;;;5024300;28;20022;-62
2023/04/14 09:22:43;;;;;;;8.10;1.93;;;;;;;;;;5024237;28;20014;-63
2023/04/14 09:25:09;;;;;;;8.50;2.27;;;;;;;;;;5023365;28;20118;-63
2023/04/14 09:27:34;;;;;;;10.52;2.10;;;;;;;;;;5024051;28;21429;-63
2023/04/14 09:29:59;;;;;;;10.53;2.10;;;;;;;;;;5022886;28;20038;-62
2023/04/14 09:32:24;;;;;;;7.63;1.87;;;;;;;;;;5025162;28;20267;-63
2023/04/14 09:34:51;;;;;;;8.20;2.17;;;;;;;;;;5027791;28;21120;-61
2023/04/14 09:37:16;;;;;;;10.30;2.50;;;;;;;;;;5026527;28;20292;-63
2023/04/14 09:39:51;;;;;;;10.67;2.00;;;;;;;;;;5028865;28;20293;-62
2023/04/14 09:42:16;;;;;;;9.65;2.22;;;;;;;;;;5027888;28;20032;-62
2023/04/14 09:44:51;;;;;;;7.65;1.90;;;;;;;;;;5027674;28;20049;-63
2023/04/14 09:47:17;;;;;;;12.52;2.25;;;;;;;;;;5027580;28;20033;-64
2023/04/14 09:49:44;;;;;;;8.35;2.05;;;;;;;;;;5026995;28;20021;-63
2023/04/14 09:52:10;;;;;;;9.15;1.80;;;;;;;;;;5026942;28;20045;-61
2023/04/14 09:54:35;;;;;;;6.90;2.08;;;;;;;;;;5027885;28;20596;-62
2023/04/14 09:57:01;;;;;;;9.23;2.20;;;;;;;;;;5026234;28;20057;-63
2023/04/14 09:59:30;;;;;;;9.60;2.42;;;;;;;;;;5028022;28;20025;-63
2023/04/14 10:01:57;;;;;;;9.05;2.10;;;;;;;;;;5028264;28;20033;-61
2023/04/14 10:04:23;;;;;;;8.25;2.00;;;;;;;;;;5027233;28;20119;-63
2023/04/14 10:06:48;;;;;;;10.25;2.30;;;;;;;;;;5027129;28;20049;-62
2023/04/14 10:09:21;;;;;;;8.43;2.40;;;;;;;;;;5042241;28;20029;-63
2023/04/14 10:11:46;;;;;;;9.05;2.08;;;;;;;;;;5026444;28;20302;-63
2023/04/14 10:14:11;;;;;;;7.90;2.13;;;;;;;;;;5025776;28;20482;-62
2023/04/14 10:16:37;;;;;;;9.47;2.43;;;;;;;;;;5020954;28;20274;-61
2023/04/14 10:19:02;;;;;;;10.27;1.88;;;;;;;;;;5021410;28;20485;-61
2023/04/14 10:21:27;;;;;;;12.25;2.42;;;;;;;;;;5010286;28;20080;-62
2023/04/14 10:23:54;;;;;;;11.27;2.47;;;;;;;;;;5034412;28;20042;-61
2023/04/14 10:26:19;;;;;;;16.58;2.40;;;;;;;;;;5024849;28;20300;-62
2023/04/14 10:28:45;;;;;;;8.75;2.30;;;;;;;;;;5025822;28;20037;-62
2023/04/14 10:31:12;;;;;;;9.23;1.88;;;;;;;;;;5026505;28;20040;-62
2023/04/14 10:33:37;;;;;;;12.88;2.38;;;;;;;;;;5006177;28;20038;-62
2023/04/14 10:36:03;;;;;;;10.48;2.45;;;;;;;;;;5022987;28;20050;-64
2023/04/14 10:38:41;;;;;;;10.57;2.50;;;;;;;;;;5026897;28;20034;-61
2023/04/14 10:41:06;;;;;;;8.63;2.15;;;;;;;;;;5036151;28;20041;-64
2023/04/14 10:43:34;;;;;;;10.73;1.85;;;;;;;;;;5033814;28;20060;-65
2023/04/14 10:45:59;;;;;;;11.40;2.55;;;;;;;;;;5024454;28;20037;-61
2023/04/14 10:48:25;;;;;;;25.13;4.05;;;;;;;;;;5021212;28;20041;-64
2023/04/14 10:50:53;;;;;;;17.00;2.67;;;;;;;;;;5026647;28;20498;-64
2023/04/14 10:53:19;;;;;;;14.70;2.35;;;;;;;;;;5027176;28;20056;-64
2023/04/14 10:55:45;;;;;;;9.25;2.10;;;;;;;;;;5021026;28;20052;-63
2023/04/14 10:58:16;;;;;;;10.93;2.20;;;;;;;;;;5014983;28;20041;-67
2023/04/14 11:00:42;;;;;;;10.88;2.10;;;;;;;;;;5009392;28;20058;-62
2023/04/14 11:03:10;;;;;;;8.15;2.10;;;;;;;;;;5010751;28;20089;-64
2023/04/14 11:05:40;;;;;;;12.00;2.45;;;;;;;;;;5013305;28;20529;-63
2023/04/14 11:08:13;;;;;;;9.30;2.17;;;;;;;;;;5011591;28;21848;-66
2023/04/14 11:10:38;;;;;;;7.22;2.20;;;;;;;;;;5022686;28;20064;-64
2023/04/14 11:13:09;;;;;;;8.15;2.28;;;;;;;;;;5025035;28;20166;-63
2023/04/14 11:15:51;;;;;;;7.10;2.00;;;;;;;;;;5011718;28;20076;-62
2023/04/14 11:18:16;;;;;;;9.20;1.95;;;;;;;;;;5013714;28;20046;-63
2023/04/14 11:20:41;;;;;;;6.28;1.77;;;;;;;;;;5011609;28;20049;-64
2023/04/14 11:23:07;;;;;;;7.88;2.13;;;;;;;;;;5008978;28;20116;-63
2023/04/14 11:25:32;;;;;;;7.10;2.67;;;;;;;;;;5019412;28;20041;-65
2023/04/14 11:27:57;;;;;;;5.60;1.75;;;;;;;;;;5027332;28;20030;-67
2023/04/14 11:30:23;;;;;;;8.30;2.10;;;;;;;;;;5034285;28;20083;-64
2023/04/14 11:32:52;;;;;;;6.63;1.60;;;;;;;;;;5011362;28;20375;-63
2023/04/14 11:35:17;;;;;;;6.47;1.70;;;;;;;;;;5014273;28;20685;-63
2023/04/14 11:37:43;;;;;;;6.63;1.90;;;;;;;;;;5009068;28;20060;-63
2023/04/14 11:40:09;;;;;;;6.15;2.05;;;;;;;;;;5009931;28;20030;-63
2023/04/14 11:42:34;;;;;;;9.65;2.25;;;;;;;;;;5009373;28;20073;-61
2023/04/14 11:44:59;;;;;;;6.45;1.60;;;;;;;;;;5009790;28;20033;-64
2023/04/14 11:47:25;;;;;;;4.70;1.80;;;;;;;;;;5010641;28;20037;-64
2023/04/14 11:49:50;;;;;;;8.98;2.03;;;;;;;;;;5010590;28;20041;-61
2023/04/14 11:52:16;;;;;;;7.72;1.92;;;;;;;;;;5010019;28;20464;-64
2023/04/14 11:54:41;;;;;;;6.30;1.70;;;;;;;;;;5014313;28;20017;-63
2023/04/14 11:57:13;;;;;;;5.28;2.00;;;;;;;;;;5007564;28;20087;-64
2023/04/14 11:59:42;;;;;;;6.28;1.70;;;;;;;;;;5012535;28;20029;-66
2023/04/14 12:02:07;;;;;;;5.50;1.80;;;;;;;;;;5016272;28;20033;-66
2023/04/14 12:04:33;;;;;;;6.72;1.75;;;;;;;;;;5013566;28;20094;-70
2023/04/14 12:06:58;;;;;;;3.88;1.60;;;;;;;;;;5014850;28;20034;-68
2023/04/14 12:09:28;;;;;;;6.17;1.80;;;;;;;;;;5009238;28;20017;-69
2023/04/14 12:11:54;;;;;;;5.28;1.80;;;;;;;;;;5003852;28;20033;-66
2023/04/14 12:14:19;;;;;;;5.90;1.70;;;;;;;;;;5024089;28;20138;-66
2023/04/14 12:16:45;;;;;;;6.90;1.80;;;;;;;;;;5018285;28;20515;-65
2023/04/14 12:19:10;;;;;;;6.80;1.88;;;;;;;;;;5012900;28;20277;-63
2023/04/14 12:21:35;;;;;;;6.60;1.40;;;;;;;;;;5016645;28;20417;-65
2023/04/14 12:24:01;;;;;;;5.03;1.83;;;;;;;;;;5023604;28;20034;-62
2023/04/14 12:26:27;;;;;;;7.35;2.10;;;;;;;;;;5023717;28;20124;-62
2023/04/14 12:28:55;;;;;;;6.85;1.90;;;;;;;;;;5011989;28;20175;-63
2023/04/14 12:31:25;;;;;;;6.85;1.73;;;;;;;;;;5025495;28;20062;-65
2023/04/14 12:33:51;;;;;;;6.80;1.80;;;;;;;;;;5009744;28;20726;-63
2023/04/14 12:36:16;;;;;;;4.45;1.48;;;;;;;;;;5021462;28;20053;-64
2023/04/14 12:38:41;;;;;;;6.73;1.70;;;;;;;;;;5022178;28;20034;-63
2023/04/14 12:41:06;;;;;;;3.35;1.10;;;;;;;;;;5011297;28;20041;-67
2023/04/14 12:43:33;;;;;;;4.40;1.63;;;;;;;;;;5022025;28;20615;-65
2023/04/14 12:45:58;;;;;;;4.90;1.88;;;;;;;;;;5013968;28;20124;-67
2023/04/14 12:48:43;;;;;;;3.90;1.27;;;;;;;;;;5010450;28;20132;-66
2023/04/14 12:51:12;;;;;;;2.97;0.70;;;;;;;;;;5017784;28;20293;-70
2023/04/14 12:53:37;;;;;;;2.63;0.82;;;;;;;;;;5015006;28;20115;-71
2023/04/14 12:56:15;;;;;;;2.17;0.77;;;;;;;;;;5020773;28;20502;-70
2023/04/14 12:58:41;;;;;;;1.45;0.65;;;;;;;;;;5008189;28;20037;-68
2023/04/14 13:01:07;;;;;;;3.00;0.50;;;;;;;;;;5019476;28;20052;-70
2023/04/14 13:03:38;;;;;;;1.63;0.40;;;;;;;;;;5009940;28;20514;-71
2023/04/14 13:06:04;;;;;;;1.20;0.40;;;;;;;;;;5012224;28;20091;-71
2023/04/14 13:08:29;;;;;;;1.63;0.40;;;;;;;;;;5024486;28;20511;-65
2023/04/14 13:10:55;;;;;;;0.60;0.20;;;;;;;;;;5025197;28;20052;-67
2023/04/14 13:13:20;;;;;;;1.45;0.40;;;;;;;;;;5023228;28;20425;-67
2023/04/14 13:15:46;;;;;;;0.63;0.25;;;;;;;;;;5019039;28;20065;-70
2023/04/14 13:18:12;;;;;;;2.38;0.20;;;;;;;;;;5019276;28;20042;-66
2023/04/14 13:20:37;;;;;;;2.90;0.43;;;;;;;;;;5005477;28;20462;-67
2023/04/14 13:23:02;;;;;;;1.13;0.40;;;;;;;;;;5023092;28;20684;-70
2023/04/14 13:25:28;;;;;;;1.03;0.40;;;;;;;;;;5023404;28;20354;-69
2023/04/14 13:27:53;;;;;;;0.87;0.40;;;;;;;;;;5019544;28;20034;-64
2023/04/14 13:30:18;;;;;;;2.50;0.50;;;;;;;;;;5019300;28;20276;-67
2023/04/14 13:32:44;;;;;;;2.08;0.40;;;;;;;;;;5019587;28;20772;-63
2023/04/14 13:35:09;;;;;;;1.48;0.30;;;;;;;;;;5007939;28;20596;-63
2023/04/14 13:37:34;;;;;;;1.55;0.57;;;;;;;;;;5008717;28;20514;-64
2023/04/14 13:39:59;;;;;;;2.00;0.43;;;;;;;;;;5010906;28;20112;-67
2023/04/14 13:42:25;;;;;;;2.85;0.50;;;;;;;;;;5008871;28;20065;-64
2023/04/14 13:44:51;;;;;;;3.15;0.50;;;;;;;;;;5007123;28;20042;-63
2023/04/14 13:47:17;;;;;;;1.55;0.47;;;;;;;;;;5012384;28;20065;-64
2023/04/14 13:49:43;;;;;;;4.25;0.60;;;;;;;;;;5008070;28;20096;-65
2023/04/14 13:52:08;;;;;;;2.33;0.33;;;;;;;;;;5005680;28;20079;-64
2023/04/14 13:54:34;;;;;;;1.98;0.30;;;;;;;;;;5008148;28;20292;-64
2023/04/14 13:56:59;;;;;;;1.80;0.38;;;;;;;;;;5008959;28;20053;-63
2023/04/14 13:59:24;;;;;;;1.35;0.30;;;;;;;;;;4996927;28;20160;-63
2023/04/14 14:01:49;;;;;;;2.05;0.50;;;;;;;;;;5007519;28;20194;-66
2023/04/14 14:04:15;;;;;;;3.50;0.50;;;;;;;;;;5009022;28;20037;-65
2023/04/14 14:06:40;;;;;;;1.52;0.40;;;;;;;;;;5006648;28;20288;-63
2023/04/14 14:09:05;;;;;;;1.17;0.30;;;;;;;;;;5009436;28;20037;-63
2023/04/14 14:11:31;;;;;;;1.43;0.50;;;;;;;;;;5007161;28;20287;-63
2023/04/14 14:13:57;;;;;;;1.13;0.30;;;;;;;;;;5009341;28;20641;-63
2023/04/14 14:16:22;;;;;;;1.05;0.30;;;;;;;;;;5008871;28;20179;-63
2023/04/14 14:18:47;;;;;;;2.87;0.30;;;;;;;;;;5009799;28;20124;-65
2023/04/14 14:21:13;;;;;;;2.63;0.47;;;;;;;;;;5010282;28;20073;-64
2023/04/14 14:23:38;;;;;;;0.60;0.20;;;;;;;;;;5012903;28;20072;-63
2023/04/14 14:26:03;;;;;;;1.83;0.30;;;;;;;;;;5011969;28;20441;-62
2023/04/14 14:28:29;;;;;;;2.50;0.40;;;;;;;;;;5011391;28;20292;-63
2023/04/14 14:30:54;;;;;;;2.03;0.43;;;;;;;;;;5014091;28;20045;-62
2023/04/14 14:33:20;;;;;;;2.92;0.60;;;;;;;;;;5012108;28;20561;-63
2023/04/14 14:35:45;;;;;;;3.30;0.40;;;;;;;;;;5010519;28;20054;-63